Time;durP1;ratioP1;P1;durP2;ratioP2;P2;SDS_P1;SDS_P2;PMS_P1;PMS_P2;Temp;Humidity;BMP_temperature;BMP_pressure;BME280_temperature;BME280_humidity;BME280_pressure;Samples;Min_cycle;Max_cycle;Signal;HPM_P1;HPM_P2
2022/07/13 00:02:16;;;;;;;10.07;4.95;;;19.00;87.80;;;;;;4794452;29;20093;-78
2022/07/13 00:04:44;;;;;;;9.98;5.13;;;18.90;88.90;;;;;;4779410;29;20528;-78
2022/07/13 00:07:12;;;;;;;12.55;5.97;;;18.80;90.10;;;;;;4777782;30;20118;-77
2022/07/13 00:09:42;;;;;;;10.73;5.40;;;18.80;90.40;;;;;;4779331;30;20078;-78
2022/07/13 00:12:09;;;;;;;;;;;18.70;90.70;;;;;;4780454;30;20052;-77
2022/07/13 00:14:37;;;;;;;14.60;4.97;;;18.80;90.80;;;;;;4768107;30;19974;-76
2022/07/13 00:17:04;;;;;;;10.15;4.97;;;18.60;90.10;;;;;;4796607;29;20062;-77
2022/07/13 00:19:32;;;;;;;13.90;5.15;;;18.40;89.90;;;;;;4805537;29;20043;-77
2022/07/13 00:21:59;;;;;;;9.07;4.68;;;18.60;90.60;;;;;;4789386;29;20054;-77
2022/07/13 00:24:27;;;;;;;8.75;4.60;;;18.50;91.40;;;;;;4789280;29;20150;-77
2022/07/13 00:26:54;;;;;;;7.25;4.15;;;18.30;90.60;;;;;;4805400;29;20108;-77
2022/07/13 00:29:26;;;;;;;5.53;3.55;;;18.00;90.90;;;;;;4802107;29;20055;-75
2022/07/13 00:31:57;;;;;;;8.40;4.25;;;18.10;91.50;;;;;;4787871;29;20043;-76
2022/07/13 00:34:27;;;;;;;13.07;4.97;;;18.50;91.70;;;;;;4788979;30;20411;-77
2022/07/13 00:36:54;;;;;;;9.68;5.85;;;18.70;91.80;;;;;;4789312;30;20051;-78
2022/07/13 00:39:21;;;;;;;7.40;4.72;;;18.80;91.30;;;;;;4786903;29;20043;-78
2022/07/13 00:41:49;;;;;;;10.88;5.38;;;18.50;92.10;;;;;;4788400;29;20423;-78
2022/07/13 00:44:17;;;;;;;15.57;5.45;;;18.50;92.30;;;;;;4788466;30;20043;-79
2022/07/13 00:46:52;;;;;;;9.38;4.82;;;18.50;92.80;;;;;;4787313;30;20519;-78
2022/07/13 00:49:22;;;;;;;8.23;4.57;;;18.50;93.10;;;;;;4772326;30;20463;-79
2022/07/13 00:51:50;;;;;;;10.77;5.13;;;18.10;92.80;;;;;;4788760;30;20043;-79
2022/07/13 00:54:28;;;;;;;10.43;5.32;;;17.90;93.60;;;;;;4772712;30;20047;-79
2022/07/13 00:57:01;;;;;;;10.02;5.85;;;18.30;93.30;;;;;;4788718;29;20043;-78
2022/07/13 00:59:31;;;;;;;9.68;5.72;;;17.80;94.30;;;;;;4788890;29;20415;-78
2022/07/13 01:01:58;;;;;;;12.98;5.53;;;17.70;95.00;;;;;;4788413;30;20515;-78
2022/07/13 01:04:25;;;;;;;11.07;4.88;;;18.00;95.00;;;;;;4788519;30;20051;-78
2022/07/13 01:06:56;;;;;;;11.40;4.65;;;18.40;95.20;;;;;;4788950;29;20069;-79
2022/07/13 01:09:25;;;;;;;7.60;4.70;;;18.20;96.40;;;;;;4788621;29;20438;-79
2022/07/13 01:11:53;;;;;;;7.18;4.60;;;18.10;96.20;;;;;;4772191;30;20108;-78
2022/07/13 01:14:22;;;;;;;8.43;4.57;;;18.00;96.30;;;;;;4788376;29;20118;-77
2022/07/13 01:16:50;;;;;;;8.75;4.70;;;18.10;96.60;;;;;;4787993;30;20051;-77
2022/07/13 01:19:18;;;;;;;10.13;4.95;;;18.10;98.60;;;;;;4771989;30;20047;-79
2022/07/13 01:21:55;;;;;;;7.40;4.65;;;18.30;99.20;;;;;;4788579;30;20047;-79
2022/07/13 01:24:32;;;;;;;8.65;4.70;;;18.50;99.40;;;;;;4787921;30;20051;-79
2022/07/13 01:27:00;;;;;;;13.15;5.10;;;18.20;99.90;;;;;;4787706;30;20058;-78
2022/07/13 01:29:30;;;;;;;12.48;5.10;;;18.20;99.90;;;;;;4788068;30;20048;-79
2022/07/13 01:32:00;;;;;;;8.00;4.97;;;17.70;99.90;;;;;;4786994;30;20488;-80
2022/07/13 01:34:30;;;;;;;9.77;4.80;;;17.70;99.90;;;;;;4787828;30;20043;-81
2022/07/13 01:36:58;;;;;;;9.02;4.57;;;17.90;99.90;;;;;;4787637;30;20054;-80
2022/07/13 01:39:26;;;;;;;7.30;5.00;;;17.80;99.90;;;;;;4787541;29;20051;-80
2022/07/13 01:41:56;;;;;;;8.43;6.30;;;17.70;99.90;;;;;;4787538;30;20112;-78
2022/07/13 01:44:32;;;;;;;8.15;5.28;;;17.80;99.90;;;;;;4786593;30;20059;-79
2022/07/13 01:47:07;;;;;;;11.80;5.60;;;17.80;99.90;;;;;;4787567;30;20381;-79
2022/07/13 01:49:38;;;;;;;9.30;5.32;;;17.80;99.90;;;;;;4786257;29;20082;-80
2022/07/13 01:52:05;;;;;;;8.95;5.20;;;17.60;99.90;;;;;;4801386;29;20062;-80
2022/07/13 01:55:02;;;;;;;13.48;7.13;;;17.30;99.90;;;;;;4786275;30;20122;-79
2022/07/13 01:57:32;;;;;;;10.38;5.40;;;17.50;99.90;;;;;;4787136;30;20054;-80
2022/07/13 02:00:03;;;;;;;9.48;5.70;;;17.50;99.90;;;;;;4770989;30;20542;-79
2022/07/13 02:02:33;;;;;;;8.90;5.13;;;17.60;99.90;;;;;;4787349;30;20043;-79
2022/07/13 02:05:02;;;;;;;8.75;5.70;;;17.60;99.90;;;;;;4787319;29;20062;-79
2022/07/13 02:07:30;;;;;;;8.23;5.28;;;17.50;99.90;;;;;;4787286;30;20051;-79
2022/07/13 02:09:57;;;;;;;9.70;5.60;;;17.20;99.90;;;;;;4787157;30;20047;-80
2022/07/13 02:12:27;;;;;;;9.57;5.85;;;17.20;99.90;;;;;;4787206;29;20511;-78
2022/07/13 02:14:56;;;;;;;9.07;5.70;;;17.30;99.90;;;;;;4771321;30;20059;-77
2022/07/13 02:17:27;;;;;;;;;;;17.40;99.90;;;;;;4787251;29;20054;-78
2022/07/13 02:19:54;;;;;;;11.52;5.00;;;17.40;99.90;;;;;;4786763;30;19933;-78
2022/07/13 02:22:22;;;;;;;9.02;5.20;;;17.50;99.90;;;;;;4787010;29;20059;-78
2022/07/13 02:24:52;;;;;;;13.43;5.43;;;17.30;99.90;;;;;;4785808;30;20043;-78
2022/07/13 02:27:19;;;;;;;6.88;4.82;;;17.30;99.90;;;;;;4786943;30;20050;-78
2022/07/13 02:29:47;;;;;;;10.30;5.07;;;17.30;99.90;;;;;;4786892;30;20051;-78
2022/07/13 02:32:14;;;;;;;9.13;5.22;;;17.30;99.90;;;;;;4786593;29;20051;-79
2022/07/13 02:34:44;;;;;;;12.00;5.70;;;17.20;99.90;;;;;;4786136;30;20079;-79
2022/07/13 02:37:14;;;;;;;9.77;5.23;;;17.20;99.90;;;;;;4785806;30;20138;-79
2022/07/13 02:39:41;;;;;;;7.35;4.82;;;17.10;99.90;;;;;;4786816;29;20495;-78
2022/07/13 02:42:09;;;;;;;8.68;5.18;;;17.00;99.90;;;;;;4786699;30;20055;-78
2022/07/13 02:44:39;;;;;;;10.20;5.28;;;17.00;99.90;;;;;;4785894;30;20147;-78
2022/07/13 02:47:07;;;;;;;10.02;6.03;;;17.10;99.90;;;;;;4786579;29;20046;-77
2022/07/13 02:49:34;;;;;;;11.65;5.30;;;17.10;99.90;;;;;;4786550;29;20131;-78
2022/07/13 02:52:01;;;;;;;10.30;5.38;;;17.10;99.90;;;;;;4787189;30;20428;-78
2022/07/13 02:54:29;;;;;;;15.20;5.82;;;17.10;99.90;;;;;;4785653;30;20526;-77
2022/07/13 02:56:56;;;;;;;11.65;6.72;;;17.10;99.90;;;;;;4787013;30;20048;-78
2022/07/13 02:59:24;;;;;;;9.48;6.32;;;17.00;99.90;;;;;;4786431;30;20051;-77
2022/07/13 03:01:51;;;;;;;10.60;6.40;;;16.80;99.90;;;;;;4786578;29;20054;-77
2022/07/13 03:04:18;;;;;;;11.23;6.55;;;16.70;99.90;;;;;;4786674;30;20048;-78
2022/07/13 03:06:46;;;;;;;13.15;7.50;;;17.00;99.90;;;;;;4800502;29;20108;-75
2022/07/13 03:09:13;;;;;;;11.45;6.63;;;17.00;99.90;;;;;;4786712;30;20119;-79
2022/07/13 03:11:40;;;;;;;10.95;6.40;;;17.00;99.90;;;;;;4786539;29;20392;-81
2022/07/13 03:14:08;;;;;;;13.98;6.28;;;17.00;99.90;;;;;;4770549;30;20063;-79
2022/07/13 03:16:35;;;;;;;12.52;7.07;;;17.00;99.90;;;;;;4770663;30;20043;-79
2022/07/13 03:19:02;;;;;;;14.70;7.35;;;16.90;99.90;;;;;;4785797;30;20100;-79
2022/07/13 03:21:30;;;;;;;16.05;7.10;;;16.80;99.90;;;;;;4800129;29;20054;-80
2022/07/13 03:23:57;;;;;;;9.63;7.00;;;16.80;99.90;;;;;;4785548;29;20130;-79
2022/07/13 03:26:25;;;;;;;11.48;6.53;;;16.70;99.90;;;;;;4786626;30;20404;-80
2022/07/13 03:28:53;;;;;;;8.90;6.47;;;16.70;99.90;;;;;;4785756;29;20047;-80
2022/07/13 03:31:20;;;;;;;10.10;6.47;;;16.70;99.90;;;;;;4788277;30;20039;-79
2022/07/13 03:33:49;;;;;;;10.00;6.05;;;16.90;99.90;;;;;;4804318;29;20196;-82
2022/07/13 03:36:16;;;;;;;8.68;6.22;;;16.90;99.90;;;;;;4790135;30;20047;-78
2022/07/13 03:38:43;;;;;;;15.98;6.05;;;16.90;99.90;;;;;;4789019;30;20055;-78
2022/07/13 03:41:11;;;;;;;10.23;6.30;;;16.90;99.90;;;;;;4789839;30;20051;-77
2022/07/13 03:43:38;;;;;;;10.98;5.95;;;16.90;99.90;;;;;;4790067;29;20047;-79
2022/07/13 03:46:05;;;;;;;12.90;6.53;;;16.70;99.90;;;;;;4790163;29;20054;-79
2022/07/13 03:48:33;;;;;;;9.55;5.22;;;16.90;99.90;;;;;;4774139;30;20047;-79
2022/07/13 03:51:00;;;;;;;10.07;5.50;;;17.00;99.90;;;;;;4789594;30;20103;-79
2022/07/13 03:53:27;;;;;;;17.27;5.22;;;17.00;99.90;;;;;;4789961;29;20047;-79
2022/07/13 03:55:55;;;;;;;11.93;5.72;;;17.10;99.90;;;;;;4789552;30;20039;-79
2022/07/13 03:58:22;;;;;;;10.10;5.68;;;16.80;99.90;;;;;;4789536;29;20181;-81
2022/07/13 04:00:50;;;;;;;10.68;5.15;;;17.00;99.90;;;;;;4789485;29;20043;-79
2022/07/13 04:03:17;;;;;;;10.90;5.88;;;17.30;99.90;;;;;;4789554;30;20051;-81
2022/07/13 04:05:44;;;;;;;13.70;7.75;;;17.50;99.90;;;;;;4789454;30;20146;-81
2022/07/13 04:08:12;;;;;;;13.38;7.32;;;17.50;99.90;;;;;;4789355;30;20043;-80
2022/07/13 04:10:39;;;;;;;13.80;7.30;;;17.20;99.90;;;;;;4789544;29;20062;-78
2022/07/13 04:13:06;;;;;;;12.82;6.32;;;17.40;99.90;;;;;;4789402;30;20051;-78
2022/07/13 04:15:38;;;;;;;12.40;6.35;;;17.50;99.90;;;;;;4789120;29;20055;-81
2022/07/13 04:18:05;;;;;;;12.23;6.82;;;17.70;99.90;;;;;;4788496;30;20153;-79
2022/07/13 04:20:33;;;;;;;11.38;5.53;;;17.90;99.90;;;;;;4773147;30;20087;-80
2022/07/13 04:23:00;;;;;;;7.25;4.90;;;17.80;99.90;;;;;;4803441;29;20051;-79
2022/07/13 04:25:28;;;;;;;11.55;5.55;;;17.80;99.90;;;;;;4789126;30;20051;-80
2022/07/13 04:27:55;;;;;;;13.10;6.22;;;17.80;99.90;;;;;;4789437;29;20431;-81
2022/07/13 04:30:22;;;;;;;10.40;5.32;;;18.00;99.90;;;;;;4789077;30;20104;-78
2022/07/13 04:32:50;;;;;;;7.82;5.13;;;18.00;99.90;;;;;;4788115;30;20070;-80
2022/07/13 04:35:18;;;;;;;15.63;5.28;;;18.10;99.90;;;;;;4789200;30;20071;-78
2022/07/13 04:37:45;;;;;;;17.20;6.63;;;18.10;99.90;;;;;;4802960;29;20043;-80
2022/07/13 04:40:13;;;;;;;13.35;6.25;;;17.80;99.90;;;;;;4788894;30;20096;-77
2022/07/13 04:42:40;;;;;;;57.20;34.22;;;17.90;99.90;;;;;;4788459;29;20059;-82
2022/07/13 04:45:26;;;;;;;53.80;35.03;;;18.00;99.90;;;;;;4760480;30;20050;-79
2022/07/13 04:48:11;;;;;;;66.72;47.15;;;17.90;99.90;;;;;;4772890;30;20035;-80
2022/07/13 04:50:38;;;;;;;10.63;7.35;;;18.20;99.90;;;;;;4772672;30;20097;-78
2022/07/13 04:53:06;;;;;;;11.68;5.90;;;18.10;99.90;;;;;;4788900;30;20051;-79
2022/07/13 04:55:36;;;;;;;13.50;6.13;;;18.20;99.90;;;;;;4788832;30;20097;-78
2022/07/13 04:58:03;;;;;;;11.68;6.13;;;18.30;99.90;;;;;;4787678;30;20059;-76
2022/07/13 05:00:31;;;;;;;13.23;6.05;;;18.40;99.90;;;;;;4788366;30;20058;-78
2022/07/13 05:03:10;;;;;;;11.52;5.28;;;18.50;99.90;;;;;;4772860;30;20155;-78
2022/07/13 05:05:37;;;;;;;8.13;4.80;;;18.60;99.90;;;;;;4788561;29;20043;-77
2022/07/13 05:08:05;;;;;;;14.45;5.60;;;18.60;99.90;;;;;;4788705;29;20085;-78
2022/07/13 05:10:33;;;;;;;10.38;4.82;;;18.80;99.90;;;;;;4802412;29;20404;-79
2022/07/13 05:13:00;;;;;;;9.43;4.78;;;18.80;99.90;;;;;;4788394;30;20404;-77
2022/07/13 05:15:48;;;;;;;10.18;5.45;;;18.80;99.90;;;;;;4802465;29;20054;-76
2022/07/13 05:18:15;;;;;;;12.93;5.25;;;18.90;99.90;;;;;;4788317;30;20470;-79
2022/07/13 05:20:42;;;;;;;8.63;4.00;;;18.90;99.90;;;;;;4788456;30;20055;-76
2022/07/13 05:23:10;;;;;;;42.83;24.02;;;18.70;99.90;;;;;;4772392;30;20450;-79
2022/07/13 05:25:37;;;;;;;32.88;20.10;;;18.80;99.90;;;;;;4769005;29;20051;-76
2022/07/13 05:28:05;;;;;;;47.05;28.70;;;18.90;99.90;;;;;;4765433;30;20052;-78
2022/07/13 05:30:32;;;;;;;12.25;8.25;;;18.80;99.90;;;;;;4792390;29;20047;-75
2022/07/13 05:33:00;;;;;;;20.92;11.52;;;18.70;99.90;;;;;;4770877;30;20071;-79
2022/07/13 05:35:27;;;;;;;60.53;40.50;;;18.70;99.90;;;;;;4786521;30;20055;-77
2022/07/13 05:37:54;;;;;;;255.75;155.25;;;19.00;99.90;;;;;;4786830;30;20120;-76
2022/07/13 05:40:21;;;;;;;88.60;60.33;;;18.90;99.90;;;;;;4783425;30;20051;-76
2022/07/13 05:42:49;;;;;;;40.03;23.95;;;18.90;99.90;;;;;;4780518;29;20043;-77
2022/07/13 05:45:17;;;;;;;15.55;9.93;;;19.00;99.90;;;;;;4786941;30;20126;-78
2022/07/13 05:47:48;;;;;;;16.63;11.27;;;19.10;99.90;;;;;;4787006;30;20404;-79
2022/07/13 05:50:15;;;;;;;15.63;10.93;;;19.10;99.90;;;;;;4786874;29;20077;-78
2022/07/13 05:52:44;;;;;;;18.65;10.77;;;19.20;99.90;;;;;;4782820;29;20055;-78
2022/07/13 05:55:11;;;;;;;17.05;8.65;;;19.10;99.90;;;;;;4784715;30;20062;-79
2022/07/13 05:57:39;;;;;;;14.38;7.88;;;19.20;99.90;;;;;;4784187;29;20043;-81
2022/07/13 06:00:13;;;;;;;18.00;8.73;;;19.10;99.90;;;;;;4785621;29;20051;-79
2022/07/13 06:02:42;;;;;;;17.13;7.68;;;19.10;99.90;;;;;;4783519;29;20059;-82
2022/07/13 06:05:10;;;;;;;13.63;7.80;;;18.90;99.90;;;;;;4784286;29;20134;-82
2022/07/13 06:07:38;;;;;;;12.45;6.57;;;19.00;99.90;;;;;;4785982;30;20047;-82
2022/07/13 06:10:06;;;;;;;12.43;6.22;;;19.10;99.90;;;;;;4786507;30;20054;-79
2022/07/13 06:12:33;;;;;;;12.98;6.40;;;19.20;99.90;;;;;;4785936;30;20480;-82
2022/07/13 06:15:01;;;;;;;11.88;6.63;;;19.20;99.90;;;;;;4770397;30;20497;-82
2022/07/13 06:17:28;;;;;;;10.00;6.43;;;19.40;99.90;;;;;;4786361;29;20055;-83
2022/07/13 06:19:55;;;;;;;10.52;5.75;;;19.60;99.90;;;;;;4786743;30;20051;-80
2022/07/13 06:22:23;;;;;;;12.45;6.25;;;19.40;99.90;;;;;;4786052;30;20122;-80
2022/07/13 06:24:50;;;;;;;10.77;5.60;;;19.50;99.90;;;;;;4786293;29;20133;-81
2022/07/13 06:27:18;;;;;;;13.05;6.60;;;19.70;99.90;;;;;;4786086;30;20046;-80
2022/07/13 06:29:45;;;;;;;10.40;5.40;;;19.80;99.90;;;;;;4770806;30;20099;-82
2022/07/13 06:32:12;;;;;;;10.80;4.90;;;19.90;99.90;;;;;;4785922;29;20058;-80
2022/07/13 06:34:40;;;;;;;9.05;5.38;;;19.80;99.90;;;;;;4786118;30;20051;-82
2022/07/13 06:37:07;;;;;;;10.07;4.88;;;19.80;99.90;;;;;;4785823;30;20051;-78
2022/07/13 06:39:54;;;;;;;10.50;4.55;;;19.90;99.90;;;;;;4773299;30;20521;-80
2022/07/13 06:42:22;;;;;;;10.02;4.40;;;20.10;99.70;;;;;;4785763;29;20058;-78
2022/07/13 06:44:49;;;;;;;12.52;4.85;;;20.10;99.90;;;;;;4785798;30;20155;-77
2022/07/13 06:47:17;;;;;;;23.35;5.00;;;20.10;99.90;;;;;;4785884;30;20100;-77
2022/07/13 06:49:45;;;;;;;10.82;4.75;;;20.00;99.90;;;;;;4785389;30;20055;-77
2022/07/13 06:52:13;;;;;;;10.15;5.03;;;19.90;99.90;;;;;;4786365;30;20496;-77
2022/07/13 06:54:40;;;;;;;11.80;4.90;;;20.20;99.90;;;;;;4787108;30;20089;-77
2022/07/13 06:57:08;;;;;;;10.00;4.57;;;20.10;99.50;;;;;;4770517;30;20058;-78
2022/07/13 06:59:35;;;;;;;25.80;4.90;;;20.10;99.80;;;;;;4785482;30;20119;-78
2022/07/13 07:02:02;;;;;;;16.77;4.95;;;20.20;99.60;;;;;;4786312;30;20404;-77
2022/07/13 07:04:30;;;;;;;10.75;4.30;;;20.20;98.70;;;;;;4786518;30;20047;-77
2022/07/13 07:06:58;;;;;;;10.10;4.57;;;20.30;98.80;;;;;;4787076;30;20058;-78
2022/07/13 07:09:25;;;;;;;14.70;4.68;;;20.40;98.60;;;;;;4786759;30;20039;-77
2022/07/13 07:11:52;;;;;;;11.18;4.38;;;20.40;98.20;;;;;;4786524;30;20047;-77
2022/07/13 07:14:20;;;;;;;11.32;4.45;;;20.40;98.20;;;;;;4785025;30;20397;-77
2022/07/13 07:16:47;;;;;;;7.85;4.07;;;20.50;97.90;;;;;;4786495;30;20059;-77
2022/07/13 07:19:15;;;;;;;11.77;4.10;;;20.50;98.20;;;;;;4786241;30;20044;-77
2022/07/13 07:21:53;;;;;;;11.90;3.83;;;20.80;98.40;;;;;;4770518;30;20071;-77
2022/07/13 07:24:21;;;;;;;9.15;3.85;;;20.90;98.30;;;;;;4786965;29;20366;-78
2022/07/13 07:26:49;;;;;;;10.40;4.32;;;20.90;98.20;;;;;;4786861;29;20517;-77
2022/07/13 07:29:17;;;;;;;8.18;3.78;;;20.90;97.80;;;;;;4786192;30;20055;-77
2022/07/13 07:31:44;;;;;;;7.22;3.53;;;21.00;97.30;;;;;;4786293;30;20055;-78
2022/07/13 07:34:12;;;;;;;10.20;3.67;;;21.10;96.90;;;;;;4786737;29;20126;-78
2022/07/13 07:36:40;;;;;;;13.65;3.63;;;21.10;96.50;;;;;;4786743;30;20043;-78
2022/07/13 07:39:07;;;;;;;9.07;3.88;;;21.20;96.30;;;;;;4786126;29;20062;-78
2022/07/13 07:41:34;;;;;;;9.07;4.03;;;21.20;96.30;;;;;;4786378;30;20066;-78
2022/07/13 07:44:02;;;;;;;9.25;4.35;;;21.30;95.50;;;;;;4786424;30;20043;-78
2022/07/13 07:46:29;;;;;;;8.50;3.28;;;21.40;96.10;;;;;;4786617;29;20055;-79
2022/07/13 07:48:57;;;;;;;11.60;3.60;;;21.40;95.10;;;;;;4784430;29;20093;-80
2022/07/13 07:51:24;;;;;;;6.88;3.47;;;21.60;94.80;;;;;;4786460;29;20406;-77
2022/07/13 07:54:12;;;;;;;7.05;3.30;;;21.60;94.20;;;;;;4785440;30;20059;-77
2022/07/13 07:56:39;;;;;;;9.63;3.20;;;21.60;93.10;;;;;;4799938;29;20053;-77
2022/07/13 07:59:07;;;;;;;8.25;2.47;;;21.50;91.60;;;;;;4799644;29;20059;-77
2022/07/13 08:01:34;;;;;;;4.97;2.70;;;21.60;91.10;;;;;;4785652;30;20051;-77
2022/07/13 08:04:02;;;;;;;7.25;2.47;;;21.70;91.40;;;;;;4786000;30;20051;-76
2022/07/13 08:06:29;;;;;;;7.20;2.40;;;22.00;91.00;;;;;;4786118;30;20067;-77
2022/07/13 08:08:57;;;;;;;12.75;2.80;;;22.10;91.00;;;;;;4785798;30;20475;-77
2022/07/13 08:11:26;;;;;;;7.10;2.65;;;22.20;90.60;;;;;;4769334;30;20047;-77
2022/07/13 08:13:53;;;;;;;5.93;2.88;;;22.20;90.40;;;;;;4768071;30;20052;-76
2022/07/13 08:16:21;;;;;;;6.50;2.63;;;22.30;90.10;;;;;;4769132;30;20488;-78
2022/07/13 08:18:49;;;;;;;4.95;2.95;;;22.20;89.70;;;;;;4771427;30;20052;-77
2022/07/13 08:21:37;;;;;;;6.72;3.03;;;22.20;88.20;;;;;;4758343;30;20048;-77
2022/07/13 08:24:04;;;;;;;8.38;2.65;;;22.30;88.30;;;;;;4770617;30;20075;-77
2022/07/13 08:26:32;;;;;;;4.53;2.15;;;22.40;86.10;;;;;;4771008;30;20047;-76
2022/07/13 08:29:00;;;;;;;6.80;2.42;;;22.60;86.10;;;;;;4771396;30;20051;-77
2022/07/13 08:31:27;;;;;;;5.95;2.78;;;22.80;87.80;;;;;;4780498;29;20051;-78
2022/07/13 08:39:27;;;;;;;6.18;2.42;;;22.80;81.30;;;;;;4789361;29;20512;-77
2022/07/13 08:41:58;;;;;;;3.85;1.95;;;22.80;82.20;;;;;;4783242;30;20502;-77
2022/07/13 08:44:25;;;;;;;5.03;2.53;;;22.80;80.80;;;;;;4790117;29;20572;-77
2022/07/13 08:46:53;;;;;;;5.65;2.35;;;22.60;79.90;;;;;;4771992;30;20054;-74
2022/07/13 08:49:22;;;;;;;11.30;2.63;;;22.70;79.90;;;;;;4786886;30;20496;-76
2022/07/13 08:51:51;;;;;;;8.00;3.78;;;22.80;79.90;;;;;;4801744;29;20048;-76
2022/07/13 08:54:19;;;;;;;7.50;3.35;;;22.60;79.70;;;;;;4801943;29;20415;-77
2022/07/13 08:56:46;;;;;;;7.10;3.22;;;22.60;79.30;;;;;;4770723;30;20055;-75
2022/07/13 08:59:14;;;;;;;4.65;2.20;;;22.60;78.90;;;;;;4786815;30;20051;-77
2022/07/13 09:01:41;;;;;;;6.30;2.40;;;22.50;78.20;;;;;;4770899;30;20055;-77
2022/07/13 09:04:17;;;;;;;4.40;2.85;;;22.60;79.00;;;;;;4787671;30;20044;-78
2022/07/13 09:06:47;;;;;;;19.33;2.17;;;22.60;78.20;;;;;;4771935;30;20108;-73
2022/07/13 09:09:36;;;;;;;5.22;2.20;;;22.50;77.00;;;;;;4786675;29;20284;-77
2022/07/13 09:12:25;;;;;;;6.20;2.20;;;22.60;76.60;;;;;;4781460;30;20138;-76
2022/07/13 09:14:58;;;;;;;5.65;2.00;;;22.90;76.40;;;;;;4788031;29;20082;-76
2022/07/13 09:17:33;;;;;;;5.40;1.85;;;23.00;73.00;;;;;;4771511;30;20047;-76
2022/07/13 09:20:10;;;;;;;4.05;1.65;;;23.10;73.00;;;;;;4786377;30;20059;-76
2022/07/13 09:23:01;;;;;;;4.65;1.88;;;23.20;72.70;;;;;;4771363;30;20067;-76
2022/07/13 09:25:34;;;;;;;4.88;1.75;;;23.10;73.20;;;;;;4801042;29;20055;-77
2022/07/13 09:28:03;;;;;;;5.63;2.05;;;23.20;73.70;;;;;;4802391;29;20047;-77
2022/07/13 09:30:31;;;;;;;7.05;1.70;;;23.60;75.60;;;;;;4787948;29;20059;-77
2022/07/13 09:33:00;;;;;;;5.82;2.00;;;23.90;74.80;;;;;;4787332;30;20051;-76
2022/07/13 09:35:54;;;;;;;5.40;2.00;;;24.00;73.80;;;;;;4771209;30;20142;-77
2022/07/13 09:38:30;;;;;;;4.63;1.90;;;23.80;72.90;;;;;;4785588;30;20055;-76
2022/07/13 09:41:17;;;;;;;4.78;2.05;;;23.50;72.50;;;;;;4786983;30;20635;-79
2022/07/13 09:47:05;;;;;;;6.60;2.95;;;23.50;73.30;;;;;;4783394;29;20086;-77
2022/07/13 09:49:43;;;;;;;4.53;2.20;;;23.80;75.40;;;;;;4797591;29;20060;-76
2022/07/13 09:52:18;;;;;;;5.03;1.77;;;24.10;73.50;;;;;;4785141;29;20057;-77
2022/07/13 09:54:51;;;;;;;2.95;1.45;;;24.10;71.90;;;;;;4801329;29;20051;-76
2022/07/13 09:57:22;;;;;;;4.05;1.73;;;24.30;71.40;;;;;;4785691;30;20113;-76
2022/07/13 09:59:50;;;;;;;4.30;1.50;;;24.50;69.90;;;;;;4800892;29;20421;-76
2022/07/13 10:02:19;;;;;;;2.78;1.30;;;24.70;68.30;;;;;;4785794;29;20420;-76
2022/07/13 10:04:48;;;;;;;3.42;1.60;;;24.70;66.50;;;;;;4784390;29;20052;-76
2022/07/13 10:07:19;;;;;;;3.40;1.73;;;24.70;65.00;;;;;;4770182;30;20112;-73
2022/07/13 10:09:50;;;;;;;4.90;2.10;;;24.60;67.60;;;;;;4785972;30;20089;-75
2022/07/13 10:12:19;;;;;;;7.88;2.60;;;24.40;68.20;;;;;;4800238;29;20062;-75
2022/07/13 10:14:47;;;;;;;3.47;1.92;;;24.20;69.30;;;;;;4799974;29;20063;-72
2022/07/13 10:17:21;;;;;;;4.43;1.83;;;24.10;69.60;;;;;;4785876;30;20066;-75
2022/07/13 10:19:55;;;;;;;4.68;1.92;;;23.80;70.30;;;;;;4770034;30;20054;-75
2022/07/13 10:22:30;;;;;;;4.93;2.22;;;23.60;70.20;;;;;;4770238;30;20154;-74
2022/07/13 10:24:59;;;;;;;11.52;3.08;;;23.80;70.40;;;;;;4785226;30;20445;-74
2022/07/13 10:27:31;;;;;;;3.63;1.88;;;24.10;70.20;;;;;;4787549;29;20474;-74
2022/07/13 10:30:03;;;;;;;3.13;1.80;;;24.10;67.00;;;;;;4784640;29;20043;-74
2022/07/13 10:32:34;;;;;;;4.72;2.25;;;23.90;67.70;;;;;;4799480;29;20059;-77
2022/07/13 10:35:04;;;;;;;;;;;23.90;68.50;;;;;;4771044;30;20142;-75
2022/07/13 10:37:59;;;;;;;8.23;3.78;;;23.90;66.80;;;;;;4783917;29;19933;-74
2022/07/13 10:40:30;;;;;;;5.00;1.88;;;23.90;69.30;;;;;;4785562;29;20513;-74
2022/07/13 10:43:03;;;;;;;5.35;2.50;;;23.80;70.10;;;;;;4785347;30;20059;-76
2022/07/13 10:45:34;;;;;;;4.32;2.05;;;23.90;70.50;;;;;;4785594;29;20051;-77
2022/07/13 10:48:05;;;;;;;4.15;1.98;;;24.10;70.70;;;;;;4784091;30;20577;-76
2022/07/13 10:50:57;;;;;;;11.77;1.83;;;24.10;70.80;;;;;;4784983;29;20059;-76
2022/07/13 10:53:46;;;;;;;3.28;1.73;;;24.20;69.80;;;;;;4786253;30;20127;-76
2022/07/13 10:56:25;;;;;;;3.53;1.67;;;24.50;71.00;;;;;;4781214;30;20051;-75
2022/07/13 10:58:53;;;;;;;7.68;2.10;;;24.50;67.80;;;;;;4780906;29;20048;-76
2022/07/13 11:01:42;;;;;;;5.13;1.70;;;24.50;68.30;;;;;;4797066;29;20510;-75
2022/07/13 11:04:15;;;;;;;4.43;1.70;;;24.50;66.10;;;;;;4755715;30;20128;-76
2022/07/13 11:07:06;;;;;;;5.07;1.70;;;24.30;67.50;;;;;;4782345;29;20075;-76
2022/07/13 11:09:34;;;;;;;4.15;1.75;;;24.30;66.10;;;;;;4777845;30;20534;-76
2022/07/13 11:12:01;;;;;;;5.53;2.33;;;24.30;65.40;;;;;;4781200;30;20502;-74
2022/07/13 11:14:49;;;;;;;4.57;1.70;;;24.30;66.60;;;;;;4785464;29;20086;-77
2022/07/13 11:17:24;;;;;;;5.18;1.80;;;24.50;68.80;;;;;;4785726;30;20047;-78
2022/07/13 11:19:56;;;;;;;2.78;1.50;;;24.50;68.20;;;;;;4780738;30;20051;-78
2022/07/13 11:22:25;;;;;;;9.02;2.10;;;24.50;67.60;;;;;;4757054;30;20078;-79
2022/07/13 11:25:15;;;;;;;3.03;1.98;;;24.80;64.80;;;;;;4786748;30;20047;-78
2022/07/13 11:27:48;;;;;;;3.05;1.73;;;25.30;64.70;;;;;;4799791;29;20183;-76
2022/07/13 11:30:26;;;;;;;1.98;1.30;;;25.50;63.00;;;;;;4785177;29;20051;-75
2022/07/13 11:32:54;;;;;;;3.42;1.63;;;25.70;63.20;;;;;;4798462;29;20043;-77
2022/07/13 11:35:22;;;;;;;2.80;1.67;;;25.50;62.50;;;;;;4784531;30;20407;-77
2022/07/13 11:37:51;;;;;;;2.30;1.63;;;25.00;62.30;;;;;;4785838;30;20067;-77
2022/07/13 11:40:30;;;;;;;3.63;1.73;;;24.80;62.10;;;;;;4799151;29;20055;-76
2022/07/13 11:43:02;;;;;;;3.63;1.40;;;24.70;61.00;;;;;;4783725;30;20054;-76
2022/07/13 11:45:32;;;;;;;3.45;1.40;;;24.60;61.10;;;;;;4783945;29;20059;-76
2022/07/13 11:48:05;;;;;;;3.42;1.90;;;24.70;62.20;;;;;;4786643;29;20051;-77
2022/07/13 11:50:40;;;;;;;6.28;1.85;;;24.80;63.20;;;;;;4765938;30;20060;-76
2022/07/13 11:53:08;;;;;;;4.10;1.70;;;24.70;63.00;;;;;;4756064;30;20091;-78
2022/07/13 11:55:36;;;;;;;4.18;1.80;;;24.70;62.10;;;;;;4783969;30;20051;-79
2022/07/13 11:58:27;;;;;;;2.42;1.30;;;24.60;63.80;;;;;;4772638;30;20462;-80
2022/07/13 12:00:56;;;;;;;3.45;1.60;;;24.50;62.40;;;;;;4788447;29;20059;-77
2022/07/13 12:07:17;;;;;;;3.30;1.70;;;24.60;63.70;;;;;;4790052;30;20059;-78
2022/07/13 12:10:00;;;;;;;2.78;1.63;;;25.00;64.40;;;;;;4789215;29;20055;-79
2022/07/13 12:12:42;;;;;;;3.78;1.63;;;25.00;63.10;;;;;;4789372;29;20043;-77
2022/07/13 12:15:12;;;;;;;3.67;1.65;;;24.90;61.50;;;;;;4787906;29;20074;-80
2022/07/13 12:17:53;;;;;;;1.95;1.20;;;25.00;62.20;;;;;;4773393;30;20508;-78
2022/07/13 12:20:23;;;;;;;2.30;1.50;;;25.20;63.20;;;;;;4772925;30;20050;-76
2022/07/13 12:22:56;;;;;;;3.35;1.48;;;25.40;65.00;;;;;;4772964;30;20055;-77
2022/07/13 12:25:42;;;;;;;3.55;1.45;;;25.60;60.20;;;;;;4773199;30;20051;-77
2022/07/13 12:28:11;;;;;;;2.55;1.42;;;26.00;59.30;;;;;;4773345;30;20047;-77
2022/07/13 12:30:59;;;;;;;3.13;1.52;;;26.50;59.70;;;;;;4802668;29;20471;-77
2022/07/13 12:33:46;;;;;;;2.85;1.38;;;27.00;59.80;;;;;;4787995;30;20071;-78
2022/07/13 12:36:14;;;;;;;2.60;1.67;;;26.70;59.30;;;;;;4788691;29;20051;-77
2022/07/13 12:38:55;;;;;;;6.47;2.55;;;26.40;60.20;;;;;;4772926;30;20407;-76
2022/07/13 12:41:28;;;;;;;3.67;1.65;;;26.20;61.90;;;;;;4788438;30;20043;-77
2022/07/13 12:44:01;;;;;;;4.57;2.30;;;26.70;59.50;;;;;;4788878;29;20047;-74
2022/07/13 12:46:52;;;;;;;3.38;1.30;;;27.10;58.80;;;;;;4787302;30;20138;-79
2022/07/13 12:49:27;;;;;;;2.92;1.40;;;27.00;57.10;;;;;;4802145;29;20075;-77
2022/07/13 12:52:03;;;;;;;7.55;2.90;;;26.50;57.10;;;;;;4788564;29;20047;-77
2022/07/13 12:54:49;;;;;;;3.60;1.40;;;26.10;57.70;;;;;;4787352;30;20077;-78
2022/07/13 12:57:19;;;;;;;4.65;2.47;;;25.90;57.70;;;;;;4788387;30;20078;-75
2022/07/13 13:00:13;;;;;;;3.22;1.80;;;26.50;58.00;;;;;;4788253;29;20093;-75
2022/07/13 13:02:48;;;;;;;2.92;1.45;;;26.70;58.10;;;;;;4786667;29;20055;-77
2022/07/13 13:05:15;;;;;;;8.60;3.20;;;26.60;57.20;;;;;;4788016;30;20354;-75
2022/07/13 13:07:43;;;;;;;4.35;2.35;;;26.50;60.00;;;;;;4788192;30;20055;-76
2022/07/13 13:10:11;;;;;;;7.57;2.20;;;26.50;61.70;;;;;;4787928;30;20078;-76
2022/07/13 13:12:39;;;;;;;7.10;1.77;;;26.40;59.90;;;;;;4787090;30;20047;-75
2022/07/13 13:15:07;;;;;;;7.85;1.65;;;26.70;59.70;;;;;;4788116;29;20055;-75